Alleycat — WDC2435 — position and weather

sailwx.info

Track history (hours):
 
Tides and Currents Weather Stations Pressure Air Temp Water Temp Dewpoint Dewpoint Depression Visibility Wind Speed Wind Dir Waves Ship Positions

Alleycat

Owner: GNOTS-RESERVE, INC., DESTREHAN, LA. More information available from US FCC via Universal Licensing System and Coast Guard Vessel Documentation Center.

Last reported at 2014-Oct-21 12:26 UTC. Time now 2014-Oct-22 06:30 UTC.
Position N 29°56' W 090°21'.

Length 22 m; draft 2.8 m.

Type: Tug. MMSI: 366459132.

Date/timePositionNaut miles runAvg speedWind from/ knotsBaromVisibWave heightAir tempDewpointWater temp
2014-Oct-21 12:26N 29°56' W 090°21'1 1.3
2014-Oct-21 11:30N 29°56' W 090°20'0 0.1
2014-Oct-21 05:31N 29°56' W 090°20'0 0.0
2014-Oct-20 12:14N 29°56' W 090°20'0 0.0
2014-Oct-20 05:14N 29°56' W 090°20'  
2014-Oct-17 07:32N 29°56' W 090°21'0 0.0
2014-Oct-15 12:30N 29°56' W 090°22'0 0.4
2014-Oct-15 11:23N 29°56' W 090°22'1 1.2
2014-Oct-15 10:31N 29°56' W 090°21'1 0.4
2014-Oct-15 09:05N 29°56' W 090°22'2 2.9
2014-Oct-15 08:31N 29°56' W 090°20'4 3.0
2014-Oct-15 07:21N 29°58' W 090°16'5 2.4
2014-Oct-15 05:10N 29°57' W 090°10'10 0.3
2014-Oct-13 12:29N 29°56' W 090°22'0 0.2
2014-Oct-13 11:33N 29°56' W 090°22'1 0.7
2014-Oct-13 10:33N 29°56' W 090°21'0 0.0
2014-Oct-13 08:32N 29°56' W 090°21'1 1.4
2014-Oct-13 07:33N 29°56' W 090°20'0 0.1
2014-Oct-13 06:33N 29°56' W 090°20'0 0.0
2014-Oct-13 05:33N 29°56' W 090°20'2 0.8
2014-Oct-13 03:33N 29°56' W 090°22'1 1.1
2014-Oct-13 02:30N 29°56' W 090°20'0 0.3
2014-Oct-13 01:24N 29°56' W 090°20'0 0.0
2014-Oct-12 23:30N 29°56' W 090°20'0 0.0
2014-Oct-12 22:33N 29°56' W 090°20'0 0.1
2014-Oct-12 17:27N 29°56' W 090°20'0 0.2
2014-Oct-12 16:30N 29°56' W 090°21'0 0.0
2014-Oct-12 09:18N 29°56' W 090°20'1 0.2
2014-Oct-12 05:25N 29°56' W 090°21'0 0.1
2014-Oct-12 04:22N 29°56' W 090°21'0 0.0
2014-Oct-12 03:33N 29°56' W 090°21'0 0.3
2014-Oct-12 02:31N 29°56' W 090°22'1 0.2
2014-Oct-12 00:17N 29°56' W 090°22'2 2.8
2014-Oct-11 23:33N 29°56' W 090°20'0 0.4
2014-Oct-11 22:33N 29°56' W 090°20'1 0.5
2014-Oct-11 20:08N 29°56' W 090°19'0 0.4
2014-Oct-11 19:33N 29°56' W 090°19'0 0.1
2014-Oct-11 18:12N 29°56' W 090°19'0 0.0
2014-Oct-11 17:33N 29°57' W 090°19'2 1.8
2014-Oct-11 16:33N 29°56' W 090°21'  
Track history (hours):
 
Tides and Currents Weather Stations Pressure Air Temp Water Temp Dewpoint Dewpoint Depression Visibility Wind Speed Wind Dir Waves Ship Positions

Alleycat

Owner: GNOTS-RESERVE, INC., DESTREHAN, LA. More information available from US FCC via Universal Licensing System and Coast Guard Vessel Documentation Center.

Last reported at 2014-Oct-21 12:26 UTC. Time now 2014-Oct-22 06:30 UTC.
Position N 29°56' W 090°21'.

Length 22 m; draft 2.8 m.

Type: Tug. MMSI: 366459132.

Date/timePositionNaut miles runAvg speedWind from/ knotsBaromVisibWave heightAir tempDewpointWater temp
2014-Oct-21 12:26N 29°56' W 090°21'1 1.3
2014-Oct-21 11:30N 29°56' W 090°20'0 0.1
2014-Oct-21 05:31N 29°56' W 090°20'0 0.0
2014-Oct-20 12:14N 29°56' W 090°20'0 0.0
2014-Oct-20 05:14N 29°56' W 090°20'  
2014-Oct-17 07:32N 29°56' W 090°21'0 0.0
2014-Oct-15 12:30N 29°56' W 090°22'0 0.4
2014-Oct-15 11:23N 29°56' W 090°22'1 1.2
2014-Oct-15 10:31N 29°56' W 090°21'1 0.4
2014-Oct-15 09:05N 29°56' W 090°22'2 2.9
2014-Oct-15 08:31N 29°56' W 090°20'4 3.0
2014-Oct-15 07:21N 29°58' W 090°16'5 2.4
2014-Oct-15 05:10N 29°57' W 090°10'10 0.3
2014-Oct-13 12:29N 29°56' W 090°22'0 0.2
2014-Oct-13 11:33N 29°56' W 090°22'1 0.7
2014-Oct-13 10:33N 29°56' W 090°21'0 0.0
2014-Oct-13 08:32N 29°56' W 090°21'1 1.4
2014-Oct-13 07:33N 29°56' W 090°20'0 0.1
2014-Oct-13 06:33N 29°56' W 090°20'0 0.0
2014-Oct-13 05:33N 29°56' W 090°20'2 0.8
2014-Oct-13 03:33N 29°56' W 090°22'1 1.1
2014-Oct-13 02:30N 29°56' W 090°20'0 0.3
2014-Oct-13 01:24N 29°56' W 090°20'0 0.0
2014-Oct-12 23:30N 29°56' W 090°20'0 0.0
2014-Oct-12 22:33N 29°56' W 090°20'0 0.1
2014-Oct-12 17:27N 29°56' W 090°20'0 0.2
2014-Oct-12 16:30N 29°56' W 090°21'0 0.0
2014-Oct-12 09:18N 29°56' W 090°20'1 0.2
2014-Oct-12 05:25N 29°56' W 090°21'0 0.1
2014-Oct-12 04:22N 29°56' W 090°21'0 0.0
2014-Oct-12 03:33N 29°56' W 090°21'0 0.3
2014-Oct-12 02:31N 29°56' W 090°22'1 0.2
2014-Oct-12 00:17N 29°56' W 090°22'2 2.8
2014-Oct-11 23:33N 29°56' W 090°20'0 0.4
2014-Oct-11 22:33N 29°56' W 090°20'1 0.5
2014-Oct-11 20:08N 29°56' W 090°19'0 0.4
2014-Oct-11 19:33N 29°56' W 090°19'0 0.1
2014-Oct-11 18:12N 29°56' W 090°19'0 0.0
2014-Oct-11 17:33N 29°57' W 090°19'2 1.8
2014-Oct-11 16:33N 29°56' W 090°21'  

Dump ship's entire track history